Time;durP1;ratioP1;P1;durP2;ratioP2;P2;SDS_P1;SDS_P2;PMS_P1;PMS_P2;Temp;Humidity;BMP_temperature;BMP_pressure;BME280_temperature;BME280_humidity;BME280_pressure;Samples;Min_cycle;Max_cycle;Signal;HPM_P1;HPM_P2
2022/10/19 00:01:43;;;;;;;;;;;10.90;60.30;;;;;;5042501;28;87330;-38
2022/10/19 00:04:09;;;;;;;;;;;10.90;60.30;;;;;;5044457;28;87283;-38
2022/10/19 00:06:35;;;;;;;;;;;10.90;60.30;;;;;;5042205;27;87508;-38
2022/10/19 00:09:14;;;;;;;;;;;10.90;60.20;;;;;;5041114;28;89090;-38
2022/10/19 00:11:41;;;;;;;;;;;10.90;60.10;;;;;;5042046;28;86912;-37
2022/10/19 00:14:07;;;;;;;;;;;10.90;60.10;;;;;;5041943;28;87671;-37
2022/10/19 00:16:33;;;;;;;;;;;10.90;60.10;;;;;;5041497;28;88488;-37
2022/10/19 00:19:00;;;;;;;;;;;10.80;60.00;;;;;;5041985;28;87086;-38
2022/10/19 00:21:26;;;;;;;;;;;10.80;60.10;;;;;;5043480;27;87319;-37
2022/10/19 00:23:52;;;;;;;;;;;10.80;60.00;;;;;;5044570;28;87953;-37
2022/10/19 00:26:17;;;;;;;;;;;10.80;60.00;;;;;;5048581;28;86349;-37
2022/10/19 00:28:43;;;;;;;;;;;10.80;60.10;;;;;;5044806;28;88146;-37
2022/10/19 00:31:10;;;;;;;;;;;10.80;60.00;;;;;;5045348;28;87077;-37
2022/10/19 00:33:36;;;;;;;;;;;10.80;59.90;;;;;;5044533;28;87830;-38
2022/10/19 00:36:02;;;;;;;;;;;10.80;60.00;;;;;;5044864;28;88249;-37
2022/10/19 00:38:28;;;;;;;;;;;10.80;60.00;;;;;;5043498;28;87158;-37
2022/10/19 00:40:53;;;;;;;;;;;10.80;60.00;;;;;;5045009;28;87541;-37
2022/10/19 00:43:23;;;;;;;;;;;10.80;59.90;;;;;;5044482;28;88310;-38
2022/10/19 00:45:49;;;;;;;;;;;10.70;60.00;;;;;;5044916;28;87343;-38
2022/10/19 00:48:21;;;;;;;;;;;10.70;59.90;;;;;;5047558;27;87361;-37
2022/10/19 00:50:48;;;;;;;;;;;10.70;60.00;;;;;;5045325;28;86335;-37
2022/10/19 00:53:14;;;;;;;;;;;10.70;59.80;;;;;;5044502;27;86990;-37
2022/10/19 00:55:40;;;;;;;;;;;10.70;59.90;;;;;;5044534;28;88286;-37
2022/10/19 00:58:06;;;;;;;;;;;10.70;59.90;;;;;;5043901;28;88056;-37
2022/10/19 01:00:32;;;;;;;;;;;10.60;59.80;;;;;;5044806;27;88322;-38
2022/10/19 01:02:58;;;;;;;;;;;10.70;59.80;;;;;;5044177;28;87948;-37
2022/10/19 01:05:25;;;;;;;;;;;10.70;59.90;;;;;;5044643;28;87136;-38
2022/10/19 01:07:51;;;;;;;;;;;10.60;59.80;;;;;;5044324;27;87326;-38
2022/10/19 01:10:18;;;;;;;;;;;10.60;59.80;;;;;;5047149;28;88139;-38
2022/10/19 01:12:47;;;;;;;;;;;10.60;60.50;;;;;;5044511;27;87501;-38
2022/10/19 01:15:12;;;;;;;;;;;10.60;59.80;;;;;;5044604;28;87259;-37
2022/10/19 01:17:40;;;;;;;;;;;10.60;60.50;;;;;;5044594;28;87095;-37
2022/10/19 01:20:24;;;;;;;;;;;10.60;59.80;;;;;;5044532;28;87001;-38
2022/10/19 01:22:50;;;;;;;;;;;10.60;59.90;;;;;;5043308;27;89139;-37
2022/10/19 01:25:23;;;;;;;;;;;10.60;59.80;;;;;;5044143;28;87163;-38
2022/10/19 01:27:56;;;;;;;;;;;10.50;59.90;;;;;;5044160;27;87408;-37
2022/10/19 01:30:40;;;;;;;;;;;10.50;59.80;;;;;;5043972;28;88015;-37
2022/10/19 01:33:22;;;;;;;;;;;10.50;59.80;;;;;;5045949;27;87207;-37
2022/10/19 01:36:10;;;;;;;;;;;10.50;59.80;;;;;;5043943;28;88146;-37
2022/10/19 01:38:48;;;;;;;;;;;10.50;59.80;;;;;;5043760;27;87178;-38
2022/10/19 01:41:13;;;;;;;;;;;10.50;59.80;;;;;;5044445;28;87315;-37
2022/10/19 01:43:45;;;;;;;;;;;10.50;59.80;;;;;;5043756;28;88166;-38
2022/10/19 01:46:15;;;;;;;;;;;10.50;59.80;;;;;;5043852;28;87153;-37
2022/10/19 01:48:43;;;;;;;;;;;10.40;59.70;;;;;;5043353;27;87907;-37
2022/10/19 01:51:27;;;;;;;;;;;10.40;59.70;;;;;;5043525;28;88200;-37
2022/10/19 01:53:56;;;;;;;;;;;10.40;59.80;;;;;;5046408;28;86975;-37
2022/10/19 01:56:24;;;;;;;;;;;10.40;59.70;;;;;;5043516;28;87663;-37
2022/10/19 01:58:50;;;;;;;;;;;10.40;59.60;;;;;;5043770;28;87046;-37
2022/10/19 02:01:18;;;;;;;;;;;10.40;59.80;;;;;;5043906;27;87657;-38
2022/10/19 02:03:43;;;;;;;;;;;10.40;59.70;;;;;;5043092;28;88417;-38
2022/10/19 02:06:10;;;;;;;;;;;10.40;59.70;;;;;;5044155;28;86365;-37
2022/10/19 02:08:39;;;;;;;;;;;10.30;59.70;;;;;;5043420;27;87205;-38
2022/10/19 02:11:05;;;;;;;;;;;10.30;59.70;;;;;;5043335;28;87960;-38
2022/10/19 02:13:31;;;;;;;;;;;10.30;59.70;;;;;;5043062;28;87817;-37
2022/10/19 02:15:58;;;;;;;;;;;10.30;59.60;;;;;;5046135;27;87949;-38
2022/10/19 02:18:29;;;;;;;;;;;10.30;59.60;;;;;;5043477;28;87176;-38
2022/10/19 02:20:55;;;;;;;;;;;10.30;59.60;;;;;;5043186;27;87171;-37
2022/10/19 02:23:24;;;;;;;;;;;10.30;59.70;;;;;;5042220;28;87847;-38
2022/10/19 02:25:49;;;;;;;;;;;10.20;59.50;;;;;;5043508;28;86964;-38
2022/10/19 02:28:15;;;;;;;;;;;10.20;59.50;;;;;;5043271;27;86842;-37
2022/10/19 02:30:41;;;;;;;;;;;10.20;59.70;;;;;;5043444;28;87155;-37
2022/10/19 02:33:06;;;;;;;;;;;10.20;59.60;;;;;;5043502;28;87616;-38
2022/10/19 02:35:32;;;;;;;;;;;10.20;59.70;;;;;;5043171;27;86857;-38
2022/10/19 02:37:59;;;;;;;;;;;10.20;59.70;;;;;;5045264;28;88667;-37
2022/10/19 02:40:26;;;;;;;;;;;10.20;59.60;;;;;;5043217;28;88349;-38
2022/10/19 02:42:55;;;;;;;;;;;10.20;59.60;;;;;;5042584;28;87789;-37
2022/10/19 02:45:23;;;;;;;;;;;10.20;59.60;;;;;;5042874;27;87025;-38
2022/10/19 02:47:51;;;;;;;;;;;10.10;59.50;;;;;;5043073;28;87456;-38
2022/10/19 02:50:18;;;;;;;;;;;10.10;59.60;;;;;;5042618;28;88022;-37
2022/10/19 02:52:43;;;;;;;;;;;10.10;59.60;;;;;;5042953;28;87136;-37
2022/10/19 02:55:09;;;;;;;;;;;10.10;59.50;;;;;;5043622;28;87511;-38
2022/10/19 02:57:34;;;;;;;;;;;10.10;59.50;;;;;;5042716;28;88232;-37
2022/10/19 03:00:00;;;;;;;;;;;10.10;59.60;;;;;;5045863;28;87158;-37
2022/10/19 03:02:25;;;;;;;;;;;10.00;59.40;;;;;;5041728;28;88989;-37
2022/10/19 03:04:51;;;;;;;;;;;10.10;59.60;;;;;;5042641;28;87107;-38
2022/10/19 03:07:17;;;;;;;;;;;10.00;59.50;;;;;;5042942;28;87789;-37
2022/10/19 03:09:43;;;;;;;;;;;10.00;59.50;;;;;;5042426;28;88395;-37
2022/10/19 03:12:09;;;;;;;;;;;10.00;59.50;;;;;;5042847;28;86986;-38
2022/10/19 03:14:35;;;;;;;;;;;10.00;59.50;;;;;;5042699;28;87412;-37
2022/10/19 03:17:00;;;;;;;;;;;10.00;59.50;;;;;;5042367;28;88174;-38
2022/10/19 03:19:26;;;;;;;;;;;10.00;59.60;;;;;;5041577;28;86361;-36
2022/10/19 03:21:51;;;;;;;;;;;10.00;59.50;;;;;;5045189;28;87090;-37
2022/10/19 03:24:17;;;;;;;;;;;9.90;59.50;;;;;;5042342;28;87308;-36
2022/10/19 03:26:42;;;;;;;;;;;9.90;59.50;;;;;;5042118;28;88123;-37
2022/10/19 03:29:08;;;;;;;;;;;9.90;59.50;;;;;;5042140;28;87962;-38
2022/10/19 03:31:33;;;;;;;;;;;9.90;59.50;;;;;;5042586;28;87187;-37
2022/10/19 03:33:59;;;;;;;;;;;9.90;59.40;;;;;;5042490;28;87358;-37
2022/10/19 03:36:26;;;;;;;;;;;9.90;59.40;;;;;;5041822;28;88300;-37
2022/10/19 03:38:52;;;;;;;;;;;9.80;59.40;;;;;;5041078;28;87137;-36
2022/10/19 03:41:19;;;;;;;;;;;9.80;59.50;;;;;;5042423;27;87178;-36
2022/10/19 03:43:45;;;;;;;;;;;9.80;59.50;;;;;;5045190;28;87147;-36
2022/10/19 03:46:10;;;;;;;;;;;9.80;59.40;;;;;;5042592;28;86996;-37
2022/10/19 03:48:36;;;;;;;;;;;9.80;59.50;;;;;;5041932;28;87963;-37
2022/10/19 03:51:09;;;;;;;;;;;9.80;59.60;;;;;;5041488;28;88246;-37
2022/10/19 03:53:35;;;;;;;;;;;9.80;59.40;;;;;;5042138;28;88387;-36
2022/10/19 03:56:01;;;;;;;;;;;9.80;59.50;;;;;;5042986;27;88037;-37
2022/10/19 03:58:27;;;;;;;;;;;9.70;59.40;;;;;;5045536;28;87014;-37
2022/10/19 04:00:52;;;;;;;;;;;9.70;59.40;;;;;;5045772;28;87509;-38
2022/10/19 04:03:18;;;;;;;;;;;9.70;59.40;;;;;;5047929;28;88215;-37
2022/10/19 04:05:43;;;;;;;;;;;9.70;59.40;;;;;;5045560;28;87465;-37
2022/10/19 04:08:09;;;;;;;;;;;9.70;59.50;;;;;;5045651;28;86867;-37
2022/10/19 04:10:35;;;;;;;;;;;9.70;59.50;;;;;;5045463;28;87131;-37
2022/10/19 04:13:00;;;;;;;;;;;9.70;59.40;;;;;;5045701;28;86858;-37
2022/10/19 04:15:25;;;;;;;;;;;9.60;59.40;;;;;;5044391;28;89206;-37
2022/10/19 04:17:51;;;;;;;;;;;9.60;59.30;;;;;;5045628;28;87451;-36
2022/10/19 04:20:16;;;;;;;;;;;9.60;59.50;;;;;;5045108;28;86982;-37
2022/10/19 04:22:42;;;;;;;;;;;9.60;59.50;;;;;;5045057;28;88141;-37
2022/10/19 04:25:08;;;;;;;;;;;9.60;59.30;;;;;;5048179;28;87034;-37
2022/10/19 04:27:34;;;;;;;;;;;9.60;59.30;;;;;;5044877;28;88166;-37
2022/10/19 04:29:59;;;;;;;;;;;9.60;59.30;;;;;;5045323;28;86885;-36
2022/10/19 04:32:25;;;;;;;;;;;9.60;59.30;;;;;;5045829;28;87374;-37
2022/10/19 04:34:50;;;;;;;;;;;9.50;59.30;;;;;;5044737;28;88020;-37
2022/10/19 04:37:16;;;;;;;;;;;9.50;59.40;;;;;;5045240;28;87074;-36
2022/10/19 04:39:42;;;;;;;;;;;9.50;59.50;;;;;;5044551;28;87861;-37
2022/10/19 04:42:08;;;;;;;;;;;9.50;59.50;;;;;;5044787;28;87968;-37
2022/10/19 04:44:33;;;;;;;;;;;9.50;59.30;;;;;;5044920;28;86925;-37
2022/10/19 04:46:59;;;;;;;;;;;9.40;59.30;;;;;;5047563;28;87384;-37
2022/10/19 04:49:24;;;;;;;;;;;9.50;59.40;;;;;;5044846;28;87042;-37
2022/10/19 04:51:50;;;;;;;;;;;9.50;59.40;;;;;;5044966;28;87457;-36
2022/10/19 04:54:15;;;;;;;;;;;9.40;59.30;;;;;;5044532;28;86980;-37
2022/10/19 04:56:41;;;;;;;;;;;9.40;59.20;;;;;;5045195;28;86367;-36
2022/10/19 04:59:06;;;;;;;;;;;9.40;59.10;;;;;;5045006;28;86973;-36
2022/10/19 05:01:32;;;;;;;;;;;9.40;59.90;;;;;;5044234;28;87962;-37
2022/10/19 05:03:58;;;;;;;;;;;9.40;59.30;;;;;;5043641;28;88068;-37
2022/10/19 05:06:24;;;;;;;;;;;9.40;59.20;;;;;;5044601;27;88409;-36
2022/10/19 05:08:50;;;;;;;;;;;9.40;59.30;;;;;;5047347;28;87944;-37
2022/10/19 05:11:16;;;;;;;;;;;9.40;59.40;;;;;;5044920;27;87232;-37
2022/10/19 05:13:42;;;;;;;;;;;9.40;59.30;;;;;;5044145;28;88085;-37
2022/10/19 05:16:09;;;;;;;;;;;9.40;59.20;;;;;;5044786;28;87053;-36
2022/10/19 05:18:35;;;;;;;;;;;9.30;59.50;;;;;;5044487;27;87512;-37
2022/10/19 05:21:08;;;;;;;;;;;9.30;59.20;;;;;;5044429;28;87551;-37
2022/10/19 05:23:34;;;;;;;;;;;9.30;59.30;;;;;;5043756;28;87085;-38
2022/10/19 05:26:04;;;;;;;;;;;9.30;59.00;;;;;;5044458;28;87526;-37
2022/10/19 05:28:30;;;;;;;;;;;9.30;59.30;;;;;;5043302;28;88864;-37
2022/10/19 05:31:03;;;;;;;;;;;9.30;59.20;;;;;;5047350;28;87198;-36
2022/10/19 05:33:28;;;;;;;;;;;9.20;59.00;;;;;;5043758;28;88141;-37
2022/10/19 05:35:54;;;;;;;;;;;9.20;59.80;;;;;;5044311;28;87073;-37
2022/10/19 05:38:19;;;;;;;;;;;9.20;59.20;;;;;;5044479;28;87411;-37
2022/10/19 05:40:45;;;;;;;;;;;9.20;59.20;;;;;;5043896;28;88206;-37
2022/10/19 05:43:11;;;;;;;;;;;9.20;59.20;;;;;;5044036;28;87116;-37
2022/10/19 05:45:36;;;;;;;;;;;9.20;59.00;;;;;;5044625;27;86801;-37
2022/10/19 05:48:02;;;;;;;;;;;9.20;59.10;;;;;;5043452;28;88218;-37
2022/10/19 05:50:27;;;;;;;;;;;9.20;59.10;;;;;;5044116;28;86974;-37
2022/10/19 05:52:53;;;;;;;;;;;9.20;59.20;;;;;;5045874;28;87902;-37
2022/10/19 05:55:18;;;;;;;;;;;9.20;59.20;;;;;;5044048;28;87145;-36
2022/10/19 05:57:44;;;;;;;;;;;9.20;59.20;;;;;;5043936;28;87405;-36
2022/10/19 06:00:10;;;;;;;;;;;9.20;59.20;;;;;;5043555;28;88145;-36
2022/10/19 06:02:35;;;;;;;;;;;9.10;59.10;;;;;;5043752;28;87057;-36
2022/10/19 06:05:01;;;;;;;;;;;9.10;59.20;;;;;;5043403;28;87419;-38
2022/10/19 06:07:26;;;;;;;;;;;9.10;59.10;;;;;;5043286;28;88120;-37
2022/10/19 06:09:52;;;;;;;;;;;9.10;59.10;;;;;;5044279;28;86411;-37
2022/10/19 06:12:19;;;;;;;;;;;9.10;59.20;;;;;;5046179;28;87413;-37
2022/10/19 06:14:44;;;;;;;;;;;9.20;59.10;;;;;;5043691;28;87053;-37
2022/10/19 06:17:10;;;;;;;;;;;9.10;59.00;;;;;;5042915;28;87932;-37
2022/10/19 06:19:35;;;;;;;;;;;9.10;59.20;;;;;;5042596;27;87871;-36
2022/10/19 06:22:01;;;;;;;;;;;9.10;59.00;;;;;;5043377;28;87080;-37
2022/10/19 06:24:26;;;;;;;;;;;9.10;59.10;;;;;;5042920;28;88455;-37
2022/10/19 06:26:52;;;;;;;;;;;9.10;59.20;;;;;;5043304;28;88119;-37
2022/10/19 06:29:18;;;;;;;;;;;9.10;59.20;;;;;;5043342;28;87093;-37
2022/10/19 06:31:45;;;;;;;;;;;9.10;59.20;;;;;;5043379;27;87220;-37
2022/10/19 06:34:10;;;;;;;;;;;9.10;59.20;;;;;;5046256;28;86468;-36
2022/10/19 06:36:36;;;;;;;;;;;9.00;59.20;;;;;;5043330;28;87048;-37
2022/10/19 06:39:02;;;;;;;;;;;9.00;59.30;;;;;;5042920;28;88122;-36
2022/10/19 06:41:28;;;;;;;;;;;9.00;59.30;;;;;;5042722;28;88015;-36
2022/10/19 06:43:54;;;;;;;;;;;9.00;59.20;;;;;;5043075;28;88334;-37
2022/10/19 06:46:22;;;;;;;;;;;9.00;59.20;;;;;;5042685;28;87970;-37
2022/10/19 06:48:50;;;;;;;;;;;9.00;59.10;;;;;;5042901;28;87012;-36
2022/10/19 06:51:15;;;;;;;;;;;9.00;59.30;;;;;;5043110;28;87459;-37
2022/10/19 06:53:41;;;;;;;;;;;9.00;59.90;;;;;;5042733;28;88080;-37
2022/10/19 06:56:07;;;;;;;;;;;8.90;59.40;;;;;;5045972;28;86996;-36
2022/10/19 06:58:35;;;;;;;;;;;9.00;59.40;;;;;;5043228;28;87348;-37
2022/10/19 07:01:01;;;;;;;;;;;9.00;59.40;;;;;;5042815;28;87024;-37
2022/10/19 07:03:28;;;;;;;;;;;8.90;59.30;;;;;;5042597;27;87436;-37
2022/10/19 07:05:54;;;;;;;;;;;8.90;59.50;;;;;;5042027;28;88874;-37
2022/10/19 07:08:20;;;;;;;;;;;9.00;59.50;;;;;;5042749;28;87091;-37
2022/10/19 07:10:48;;;;;;;;;;;8.90;59.50;;;;;;5042768;28;87260;-37
2022/10/19 07:13:14;;;;;;;;;;;8.90;59.50;;;;;;5042325;28;87322;-37
2022/10/19 07:15:39;;;;;;;;;;;8.90;59.60;;;;;;5042584;28;87120;-37
2022/10/19 07:18:05;;;;;;;;;;;8.90;59.70;;;;;;5045151;28;87446;-38
2022/10/19 07:20:30;;;;;;;;;;;8.90;59.70;;;;;;5042619;28;87099;-37
2022/10/19 07:22:56;;;;;;;;;;;8.90;59.70;;;;;;5043327;28;87427;-37
2022/10/19 07:25:21;;;;;;;;;;;8.90;59.80;;;;;;5040581;28;88275;-37
2022/10/19 07:27:47;;;;;;;;;;;8.90;59.80;;;;;;5041333;28;87626;-37
2022/10/19 07:30:12;;;;;;;;;;;8.80;60.00;;;;;;5040683;28;88010;-36
2022/10/19 07:32:38;;;;;;;;;;;8.80;60.00;;;;;;5044543;28;87944;-36
2022/10/19 07:35:04;;;;;;;;;;;8.90;60.00;;;;;;5045200;28;87078;-37
2022/10/19 07:37:29;;;;;;;;;;;8.90;60.00;;;;;;5045352;27;87550;-38
2022/10/19 07:39:55;;;;;;;;;;;8.90;60.60;;;;;;5047701;28;87989;-37
2022/10/19 07:42:20;;;;;;;;;;;8.90;60.00;;;;;;5045079;28;87898;-36
2022/10/19 07:44:46;;;;;;;;;;;8.90;60.00;;;;;;5044830;28;87851;-37
2022/10/19 07:47:11;;;;;;;;;;;8.90;60.10;;;;;;5045466;28;86508;-37
2022/10/19 07:49:37;;;;;;;;;;;8.90;60.10;;;;;;5045159;28;86913;-38
2022/10/19 07:52:02;;;;;;;;;;;8.90;60.10;;;;;;5044623;28;87912;-37
2022/10/19 07:54:28;;;;;;;;;;;8.90;60.20;;;;;;5044202;28;88061;-37
2022/10/19 07:56:53;;;;;;;;;;;8.90;60.20;;;;;;5044793;27;87408;-37
2022/10/19 07:59:19;;;;;;;;;;;8.90;60.20;;;;;;5042862;28;88814;-37
2022/10/19 08:01:46;;;;;;;;;;;8.90;60.20;;;;;;5047617;28;87014;-37
2022/10/19 08:04:11;;;;;;;;;;;8.80;60.20;;;;;;5044174;28;87951;-37
2022/10/19 08:06:37;;;;;;;;;;;8.90;60.30;;;;;;5044701;28;87094;-37
2022/10/19 08:09:04;;;;;;;;;;;8.90;60.30;;;;;;5044675;27;87450;-36
2022/10/19 08:11:31;;;;;;;;;;;8.90;60.30;;;;;;5044829;28;87484;-37
2022/10/19 08:13:58;;;;;;;;;;;8.90;60.40;;;;;;5044531;28;87100;-37
2022/10/19 08:16:25;;;;;;;;;;;8.90;60.50;;;;;;5044218;27;87387;-36
2022/10/19 08:18:51;;;;;;;;;;;8.90;60.50;;;;;;5043310;28;89015;-37
2022/10/19 08:21:17;;;;;;;;;;;8.90;60.50;;;;;;5047442;28;86865;-37
2022/10/19 08:23:42;;;;;;;;;;;8.80;60.50;;;;;;5035507;28;224363;-36
2022/10/19 08:26:08;;;;;;;;;;;8.80;60.60;;;;;;5044591;28;86984;-37
2022/10/19 08:28:33;;;;;;;;;;;8.90;60.60;;;;;;5045255;28;87396;-37
2022/10/19 08:31:07;;;;;;;;;;;8.90;60.60;;;;;;5044885;28;88165;-37
2022/10/19 08:33:33;;;;;;;;;;;8.90;60.50;;;;;;5045240;28;86933;-37
2022/10/19 08:35:58;;;;;;;;;;;8.90;60.40;;;;;;5045783;28;87417;-37
2022/10/19 08:38:24;;;;;;;;;;;8.90;60.50;;;;;;5045035;28;88141;-37
2022/10/19 08:40:49;;;;;;;;;;;8.90;60.60;;;;;;5045063;28;86820;-37
2022/10/19 08:43:15;;;;;;;;;;;8.90;60.70;;;;;;5046631;28;87803;-36
2022/10/19 08:45:43;;;;;;;;;;;8.90;60.80;;;;;;5044763;28;87065;-37
2022/10/19 08:48:15;;;;;;;;;;;8.90;60.70;;;;;;5044977;28;87260;-37
2022/10/19 08:50:42;;;;;;;;;;;8.90;60.70;;;;;;5044641;28;87924;-36
2022/10/19 08:53:30;;;;;;;;;;;8.90;60.80;;;;;;5044837;28;87342;-37
2022/10/19 08:55:59;;;;;;;;;;;8.90;60.90;;;;;;5045096;27;87353;-37
2022/10/19 08:58:24;;;;;;;;;;;8.90;61.00;;;;;;5044360;28;88220;-37
2022/10/19 09:01:02;;;;;;;;;;;8.90;61.00;;;;;;5045361;28;86290;-36
2022/10/19 09:03:48;;;;;;;;;;;9.00;61.00;;;;;;5044458;27;86841;-37
2022/10/19 09:06:21;;;;;;;;;;;9.00;61.00;;;;;;5046607;28;88248;-37
2022/10/19 09:08:49;;;;;;;;;;;9.00;61.00;;;;;;5043887;28;87918;-36
2022/10/19 09:11:16;;;;;;;;;;;9.00;60.90;;;;;;5044497;28;88202;-37
2022/10/19 09:13:45;;;;;;;;;;;9.00;61.10;;;;;;5044500;28;87001;-38
2022/10/19 09:16:12;;;;;;;;;;;8.90;61.20;;;;;;5044592;28;87581;-37
2022/10/19 09:18:38;;;;;;;;;;;8.90;61.20;;;;;;5044230;28;87932;-37
2022/10/19 09:21:17;;;;;;;;;;;9.00;61.30;;;;;;5044741;28;87056;-37
2022/10/19 09:23:46;;;;;;;;;;;9.00;61.10;;;;;;5044062;28;87405;-36
2022/10/19 09:26:16;;;;;;;;;;;9.00;61.10;;;;;;5044546;28;87379;-37
2022/10/19 09:28:47;;;;;;;;;;;9.00;61.10;;;;;;5047271;28;86964;-37
2022/10/19 09:31:23;;;;;;;;;;;8.90;61.40;;;;;;5043821;28;88026;-37
2022/10/19 09:33:51;;;;;;;;;;;8.80;61.80;;;;;;5043317;28;88047;-37
2022/10/19 09:36:17;;;;;;;;;;;8.90;61.90;;;;;;5044274;27;88273;-36
2022/10/19 09:38:42;;;;;;;;;;;9.00;61.50;;;;;;5043975;28;87475;-37
2022/10/19 09:41:16;;;;;;;;;;;9.10;61.40;;;;;;5044213;28;87015;-37
2022/10/19 09:43:49;;;;;;;;;;;9.00;61.50;;;;;;5043995;27;87406;-37
2022/10/19 09:46:27;;;;;;;;;;;9.10;61.40;;;;;;5043650;28;88208;-38
2022/10/19 09:48:52;;;;;;;;;;;9.10;61.40;;;;;;5044037;28;87119;-37
2022/10/19 09:51:18;;;;;;;;;;;9.20;61.20;;;;;;5047049;28;87413;-37
2022/10/19 09:53:45;;;;;;;;;;;9.20;61.80;;;;;;5043179;27;87020;-37
2022/10/19 09:56:17;;;;;;;;;;;9.20;61.20;;;;;;5043978;27;87265;-37
2022/10/19 09:58:47;;;;;;;;;;;9.30;61.20;;;;;;5042880;28;88163;-37
2022/10/19 10:01:28;;;;;;;;;;;9.30;61.40;;;;;;5044053;28;88159;-37
2022/10/19 10:04:03;;;;;;;;;;;9.30;61.30;;;;;;5043549;28;87351;-37
2022/10/19 10:06:28;;;;;;;;;;;9.30;61.20;;;;;;5043453;28;87905;-36
2022/10/19 10:08:57;;;;;;;;;;;9.30;61.30;;;;;;5043752;28;87088;-36
2022/10/19 10:11:36;;;;;;;;;;;9.30;61.50;;;;;;5045996;27;87241;-37
2022/10/19 10:14:31;;;;;;;;;;;9.30;61.40;;;;;;5043453;28;87034;-37
2022/10/19 10:17:01;;;;;;;;;;;9.40;61.50;;;;;;5034664;27;87507;-36
2022/10/19 10:19:28;;;;;;;;;;;9.40;61.30;;;;;;5043109;28;87672;-37
2022/10/19 10:21:54;;;;;;;;;;;9.40;61.60;;;;;;5043418;28;87114;-37
2022/10/19 10:24:21;;;;;;;;;;;9.40;61.20;;;;;;5042379;27;87955;-37
2022/10/19 10:26:51;;;;;;;;;;;9.40;61.20;;;;;;5041261;28;88464;-37
2022/10/19 10:29:17;;;;;;;;;;;9.40;61.20;;;;;;5043445;28;87166;-36
2022/10/19 10:31:44;;;;;;;;;;;9.40;61.30;;;;;;5043303;28;87474;-37
2022/10/19 10:34:12;;;;;;;;;;;9.50;61.10;;;;;;5046165;28;88110;-36
2022/10/19 10:36:38;;;;;;;;;;;9.50;61.20;;;;;;5043154;27;87341;-36
2022/10/19 10:39:05;;;;;;;;;;;9.50;61.10;;;;;;5042970;28;87942;-37
2022/10/19 10:41:35;;;;;;;;;;;9.60;61.00;;;;;;5043867;28;87582;-37
2022/10/19 10:44:05;;;;;;;;;;;9.50;60.90;;;;;;5043306;27;87058;-36
2022/10/19 10:46:35;;;;;;;;;;;9.60;61.00;;;;;;5042813;28;87966;-37
2022/10/19 10:49:02;;;;;;;;;;;9.60;61.20;;;;;;5042187;28;88032;-37
2022/10/19 10:51:37;;;;;;;;;;;9.60;60.90;;;;;;5043053;27;88275;-36
2022/10/19 10:54:15;;;;;;;;;;;9.70;61.70;;;;;;5042717;28;87095;-37
2022/10/19 10:56:42;;;;;;;;;;;9.70;60.50;;;;;;5046101;28;86960;-37
2022/10/19 10:59:21;;;;;;;;;;;9.70;60.50;;;;;;5042744;28;88177;-37
2022/10/19 11:02:10;;;;;;;;;;;9.70;60.70;;;;;;5042986;28;86945;-36
2022/10/19 11:04:38;;;;;;;;;;;9.70;60.30;;;;;;5022267;27;88065;-37
2022/10/19 11:07:14;;;;;;;;;;;9.80;60.60;;;;;;5043008;28;86544;-36
2022/10/19 11:09:45;;;;;;;;;;;9.80;60.40;;;;;;5043097;28;86953;-37
2022/10/19 11:12:12;;;;;;;;;;;9.80;60.10;;;;;;5042627;28;87859;-36
2022/10/19 11:14:48;;;;;;;;;;;9.80;60.10;;;;;;5041801;28;89238;-37
2022/10/19 11:17:17;;;;;;;;;;;9.90;60.20;;;;;;5042749;28;87342;-36
2022/10/19 11:19:43;;;;;;;;;;;9.80;60.40;;;;;;5045153;27;87117;-36
2022/10/19 11:22:08;;;;;;;;;;;9.90;60.00;;;;;;5042777;28;86816;-37
2022/10/19 11:24:41;;;;;;;;;;;9.90;60.40;;;;;;5041919;28;87390;-37
2022/10/19 11:27:25;;;;;;;;;;;9.90;60.00;;;;;;5042348;28;88272;-37
2022/10/19 11:30:02;;;;;;;;;;;10.00;60.30;;;;;;5042532;28;87146;-36
2022/10/19 11:32:37;;;;;;;;;;;10.00;60.60;;;;;;5043125;28;87600;-36
2022/10/19 11:35:18;;;;;;;;;;;10.00;60.50;;;;;;5042015;28;88073;-37
2022/10/19 11:38:02;;;;;;;;;;;10.00;60.60;;;;;;5042605;28;86984;-37
2022/10/19 11:40:33;;;;;;;;;;;10.00;60.30;;;;;;5041859;28;87961;-37
2022/10/19 11:43:03;;;;;;;;;;;10.10;60.00;;;;;;5045019;28;87325;-37
2022/10/19 11:45:35;;;;;;;;;;;10.10;59.60;;;;;;5042353;27;87167;-37
2022/10/19 11:48:19;;;;;;;;;;;10.10;60.10;;;;;;5042097;28;88630;-37
2022/10/19 11:50:50;;;;;;;;;;;10.10;60.00;;;;;;5042514;27;87128;-37
2022/10/19 11:53:30;;;;;;;;;;;10.10;59.70;;;;;;5042163;28;87618;-36
2022/10/19 11:55:59;;;;;;;;;;;10.20;60.10;;;;;;5041860;28;88132;-37
2022/10/19 11:58:45;;;;;;;;;;;10.20;60.00;;;;;;5042458;28;86365;-37
2022/10/19 12:01:11;;;;;;;;;;;10.20;59.60;;;;;;5042213;27;88085;-36
2022/10/19 12:03:56;;;;;;;;;;;10.20;60.00;;;;;;5041702;28;88043;-36
2022/10/19 12:06:40;;;;;;;;;;;10.30;59.90;;;;;;5044391;27;88095;-37
2022/10/19 12:09:11;;;;;;;;;;;10.30;60.30;;;;;;5041704;27;87945;-37
2022/10/19 12:11:48;;;;;;;;;;;10.30;60.30;;;;;;5041967;28;87076;-37
2022/10/19 12:14:22;;;;;;;;;;;10.30;60.50;;;;;;5042275;27;87320;-37
2022/10/19 12:16:50;;;;;;;;;;;10.30;60.40;;;;;;5042076;27;88208;-37
2022/10/19 12:19:21;;;;;;;;;;;10.40;60.50;;;;;;5045430;28;87096;-37
2022/10/19 12:21:47;;;;;;;;;;;10.40;60.40;;;;;;5045592;27;87953;-36
2022/10/19 12:24:20;;;;;;;;;;;10.40;59.90;;;;;;5045188;28;87832;-37
2022/10/19 12:26:46;;;;;;;;;;;10.40;60.40;;;;;;5048421;28;86907;-37
2022/10/19 12:29:16;;;;;;;;;;;10.40;60.10;;;;;;5045070;28;88192;-37
2022/10/19 12:31:43;;;;;;;;;;;10.50;60.20;;;;;;5042892;28;87983;-37
2022/10/19 12:34:27;;;;;;;;;;;10.50;59.80;;;;;;5045184;28;88793;-37
2022/10/19 12:36:52;;;;;;;;;;;10.50;59.70;;;;;;5044974;27;88083;-36
2022/10/19 12:39:29;;;;;;;;;;;10.50;60.10;;;;;;5045133;28;87069;-37
2022/10/19 12:41:58;;;;;;;;;;;10.60;60.00;;;;;;5045322;28;87416;-36
2022/10/19 12:44:32;;;;;;;;;;;10.60;59.70;;;;;;5044620;28;88262;-37
2022/10/19 12:46:59;;;;;;;;;;;10.60;60.00;;;;;;5045048;28;87132;-37
2022/10/19 12:49:24;;;;;;;;;;;10.60;59.80;;;;;;5047931;27;87314;-37
2022/10/19 12:51:51;;;;;;;;;;;10.60;60.80;;;;;;5044731;28;87076;-37
2022/10/19 12:54:20;;;;;;;;;;;10.60;60.30;;;;;;5044911;27;88689;-37
2022/10/19 12:56:48;;;;;;;;;;;10.70;60.10;;;;;;5043719;28;88970;-37
2022/10/19 12:59:40;;;;;;;;;;;10.70;60.10;;;;;;5044646;28;87143;-37
2022/10/19 13:02:25;;;;;;;;;;;10.70;59.90;;;;;;5041902;28;87691;-37
2022/10/19 13:04:51;;;;;;;;;;;10.70;59.90;;;;;;5044187;28;87815;-37
2022/10/19 13:07:17;;;;;;;;;;;10.80;60.20;;;;;;5044739;28;86979;-37
2022/10/19 13:09:43;;;;;;;;;;;10.80;59.90;;;;;;5044794;28;87471;-36
2022/10/19 13:12:12;;;;;;;;;;;10.80;61.00;;;;;;5047286;28;88522;-37
2022/10/19 13:14:40;;;;;;;;;;;10.80;60.30;;;;;;5045073;28;87486;-37
2022/10/19 13:17:06;;;;;;;;;;;10.80;60.10;;;;;;5044285;28;88275;-38
2022/10/19 13:19:32;;;;;;;;;;;10.80;60.20;;;;;;5044243;28;87222;-37
2022/10/19 13:21:57;;;;;;;;;;;10.90;60.40;;;;;;5043948;27;87785;-37
2022/10/19 13:24:23;;;;;;;;;;;10.90;60.30;;;;;;5043685;28;88108;-37
2022/10/19 13:27:03;;;;;;;;;;;10.90;60.50;;;;;;5044471;28;87087;-38
2022/10/19 13:29:37;;;;;;;;;;;10.90;60.50;;;;;;5043049;28;87589;-37
2022/10/19 13:32:21;;;;;;;;;;;10.90;60.20;;;;;;5044083;28;88355;-37
2022/10/19 13:34:47;;;;;;;;;;;11.00;60.50;;;;;;5047370;27;87591;-37
2022/10/19 13:37:15;;;;;;;;;;;11.00;60.20;;;;;;5043932;28;88362;-38
2022/10/19 13:39:41;;;;;;;;;;;11.00;60.50;;;;;;5044539;27;86273;-37
2022/10/19 13:42:21;;;;;;;;;;;11.00;60.70;;;;;;5044232;27;87008;-37
2022/10/19 13:44:47;;;;;;;;;;;11.00;60.80;;;;;;5043824;28;87792;-37
2022/10/19 13:47:30;;;;;;;;;;;11.10;60.80;;;;;;5043306;28;88048;-38
2022/10/19 13:49:55;;;;;;;;;;;11.10;60.70;;;;;;5044098;28;88368;-38
2022/10/19 13:52:30;;;;;;;;;;;11.10;60.50;;;;;;5043695;28;88160;-37
2022/10/19 13:55:17;;;;;;;;;;;11.10;60.50;;;;;;5044005;28;87606;-36
2022/10/19 13:58:01;;;;;;;;;;;11.20;60.40;;;;;;5046701;28;87454;-37
2022/10/19 14:00:33;;;;;;;;;;;11.20;60.60;;;;;;5043945;27;87155;-37
2022/10/19 14:03:19;;;;;;;;;;;11.20;60.70;;;;;;5043802;28;87240;-37
2022/10/19 14:05:51;;;;;;;;;;;11.20;60.70;;;;;;5043753;28;87263;-37
2022/10/19 14:08:22;;;;;;;;;;;11.20;60.80;;;;;;5043751;28;86983;-37
2022/10/19 14:10:56;;;;;;;;;;;11.20;60.80;;;;;;5043660;28;87507;-37
2022/10/19 14:13:22;;;;;;;;;;;11.30;61.00;;;;;;5042761;28;89007;-37
2022/10/19 14:15:59;;;;;;;;;;;11.30;60.90;;;;;;5043698;28;87084;-37
2022/10/19 14:18:26;;;;;;;;;;;11.30;61.00;;;;;;5043738;27;87312;-37
2022/10/19 14:20:56;;;;;;;;;;;11.40;61.00;;;;;;5046057;28;87959;-36
2022/10/19 14:23:23;;;;;;;;;;;11.40;60.70;;;;;;5042792;27;87347;-37
2022/10/19 14:25:50;;;;;;;;;;;11.40;61.10;;;;;;5043219;28;87965;-37
2022/10/19 14:28:16;;;;;;;;;;;11.30;60.70;;;;;;5043614;28;87083;-37
2022/10/19 14:30:42;;;;;;;;;;;11.40;61.00;;;;;;5043508;28;87496;-37
2022/10/19 14:33:13;;;;;;;;;;;11.40;60.90;;;;;;5042944;28;88130;-36